Terminal Aerodrome Forecast
Issued by NWS

Home | Current Version | Previous Version | Text Only | Print | Product List | Glossary On
Versions: 1 2 3 4 5 6 7 8 9 10 11 12 13 14 15 16 17 18 19 20 21 22 23 24
000
FTUS45 KBOU 150534
TAFBJC
TAF
KBJC 150534Z 1506/1606 36004KT P6SM BKN070
     FM150800 VRB03KT P6SM SCT020 OVC040
     FM151100 VRB03KT 4SM BR VCSH BKN020 OVC040
     FM151800 09006KT 4SM -SN BR BKN020 OVC040
     FM152100 09008KT 2SM -SN BR BKN012 OVC020
     FM152300 15006KT 3SM -SN BR BKN012 OVC020
      TEMPO 1601/1605 2SM -SN BR OVC008=

USA.gov is the U.S. government's official web portal to all federal, state and local government web resources and services.